sensor_id;sensor_type;location;lat;lon;timestamp;pressure;altitude;pressure_sealevel;temperature;humidity
9277;BME280;4676;42.678;23.244;2022-10-18T16:50:18;94951.38;;;11.69;66.69
9277;BME280;4676;42.678;23.244;2022-10-18T16:52:46;94948.94;;;11.66;68.17
9277;BME280;4676;42.678;23.244;2022-10-18T16:55:13;94943.22;;;11.60;69.21
9277;BME280;4676;42.678;23.244;2022-10-18T16:57:47;94952.56;;;11.58;70.67
9277;BME280;4676;42.678;23.244;2022-10-18T17:00:18;94942.19;;;11.65;75.87
9277;BME280;4676;42.678;23.244;2022-10-18T17:02:46;94946.38;;;11.68;73.59
9277;BME280;4676;42.678;23.244;2022-10-18T17:05:13;94943.09;;;11.64;73.01
9277;BME280;4676;42.678;23.244;2022-10-18T17:07:42;94943.31;;;11.57;72.72
9277;BME280;4676;42.678;23.244;2022-10-18T17:10:11;94947.38;;;11.62;73.99
9277;BME280;4676;42.678;23.244;2022-10-18T17:12:38;94948.72;;;11.46;74.94
9277;BME280;4676;42.678;23.244;2022-10-18T17:16:25;94941.31;;;11.38;76.58
9277;BME280;4676;42.678;23.244;2022-10-18T17:18:52;94945.69;;;11.33;70.62
9277;BME280;4676;42.678;23.244;2022-10-18T17:21:19;94950.75;;;11.33;72.48
9277;BME280;4676;42.678;23.244;2022-10-18T17:23:46;94942.81;;;11.44;71.45
9277;BME280;4676;42.678;23.244;2022-10-18T17:26:14;94940.66;;;11.32;75.57
9277;BME280;4676;42.678;23.244;2022-10-18T17:28:42;94939.97;;;11.27;77.41
9277;BME280;4676;42.678;23.244;2022-10-18T17:31:08;94941.91;;;11.19;73.70
9277;BME280;4676;42.678;23.244;2022-10-18T17:33:37;94935.34;;;11.12;73.40
9277;BME280;4676;42.678;23.244;2022-10-18T17:36:04;94902.94;;;10.92;74.39
9277;BME280;4676;42.678;23.244;2022-10-18T17:38:31;94942.25;;;11.36;66.27
9277;BME280;4676;42.678;23.244;2022-10-18T17:40:57;94938.00;;;11.36;66.56
9277;BME280;4676;42.678;23.244;2022-10-18T17:43:24;94935.94;;;11.47;63.51
9277;BME280;4676;42.678;23.244;2022-10-18T17:45:53;94943.25;;;11.58;68.58
9277;BME280;4676;42.678;23.244;2022-10-18T17:48:20;94940.16;;;11.48;69.12
9277;BME280;4676;42.678;23.244;2022-10-18T17:50:49;94941.41;;;11.35;67.95
9277;BME280;4676;42.678;23.244;2022-10-18T17:53:16;94934.06;;;11.26;73.50
9277;BME280;4676;42.678;23.244;2022-10-18T17:55:47;94935.69;;;11.29;75.49
9277;BME280;4676;42.678;23.244;2022-10-18T17:58:14;94933.16;;;11.29;75.19
9277;BME280;4676;42.678;23.244;2022-10-18T18:00:40;94922.97;;;11.01;71.40
9277;BME280;4676;42.678;23.244;2022-10-18T18:03:07;94929.97;;;10.91;74.55
9277;BME280;4676;42.678;23.244;2022-10-18T18:05:34;94925.28;;;10.78;76.84
9277;BME280;4676;42.678;23.244;2022-10-18T18:08:02;94935.88;;;10.93;69.58
9277;BME280;4676;42.678;23.244;2022-10-18T18:10:29;94935.03;;;10.93;69.59
9277;BME280;4676;42.678;23.244;2022-10-18T18:12:57;94937.59;;;10.91;73.33
9277;BME280;4676;42.678;23.244;2022-10-18T18:15:23;94927.66;;;10.84;74.10
9277;BME280;4676;42.678;23.244;2022-10-18T18:17:50;94930.38;;;10.78;72.61
9277;BME280;4676;42.678;23.244;2022-10-18T18:20:17;94930.28;;;10.81;71.06
9277;BME280;4676;42.678;23.244;2022-10-18T18:22:45;94928.75;;;10.75;76.75
9277;BME280;4676;42.678;23.244;2022-10-18T18:25:13;94923.88;;;10.69;79.78
9277;BME280;4676;42.678;23.244;2022-10-18T18:29:48;94924.66;;;10.70;79.93
9277;BME280;4676;42.678;23.244;2022-10-18T18:32:15;94919.09;;;10.57;81.32
9277;BME280;4676;42.678;23.244;2022-10-18T18:34:41;94921.19;;;10.43;81.12
9277;BME280;4676;42.678;23.244;2022-10-18T18:37:08;94919.66;;;10.36;81.74
9277;BME280;4676;42.678;23.244;2022-10-18T18:39:35;94914.88;;;10.25;80.95
9277;BME280;4676;42.678;23.244;2022-10-18T18:42:04;94917.47;;;10.24;80.80
9277;BME280;4676;42.678;23.244;2022-10-18T18:44:31;94908.69;;;10.35;82.63
9277;BME280;4676;42.678;23.244;2022-10-18T18:47:00;94910.53;;;10.30;83.40
9277;BME280;4676;42.678;23.244;2022-10-18T18:49:27;94914.25;;;10.17;83.27
9277;BME280;4676;42.678;23.244;2022-10-18T18:51:55;94905.16;;;10.09;81.13
9277;BME280;4676;42.678;23.244;2022-10-18T18:54:22;94911.44;;;10.28;75.45
9277;BME280;4676;42.678;23.244;2022-10-18T18:56:49;94913.94;;;10.29;76.34
9277;BME280;4676;42.678;23.244;2022-10-18T18:59:17;94913.06;;;10.30;73.89
9277;BME280;4676;42.678;23.244;2022-10-18T19:01:44;94907.88;;;10.35;73.59
9277;BME280;4676;42.678;23.244;2022-10-18T19:04:12;94906.41;;;10.26;78.64
9277;BME280;4676;42.678;23.244;2022-10-18T19:06:41;94916.66;;;10.22;79.95
9277;BME280;4676;42.678;23.244;2022-10-18T19:09:10;94903.47;;;10.09;83.31
9277;BME280;4676;42.678;23.244;2022-10-18T19:11:43;94919.59;;;10.05;83.33
9277;BME280;4676;42.678;23.244;2022-10-18T19:14:11;94914.69;;;9.99;81.04
9277;BME280;4676;42.678;23.244;2022-10-18T19:16:40;94903.00;;;9.93;77.88
9277;BME280;4676;42.678;23.244;2022-10-18T19:19:09;94917.91;;;10.06;76.35
9277;BME280;4676;42.678;23.244;2022-10-18T19:21:39;94912.78;;;10.07;75.46
9277;BME280;4676;42.678;23.244;2022-10-18T19:24:07;94908.59;;;10.06;75.04
9277;BME280;4676;42.678;23.244;2022-10-18T19:26:35;94914.59;;;10.02;76.44
9277;BME280;4676;42.678;23.244;2022-10-18T19:29:05;94909.72;;;9.94;80.48
9277;BME280;4676;42.678;23.244;2022-10-18T19:31:33;94907.97;;;9.96;83.79
9277;BME280;4676;42.678;23.244;2022-10-18T19:34:00;94905.59;;;9.92;84.18
9277;BME280;4676;42.678;23.244;2022-10-18T19:36:28;94903.16;;;9.87;85.98
9277;BME280;4676;42.678;23.244;2022-10-18T19:38:56;94903.34;;;9.80;87.76
9277;BME280;4676;42.678;23.244;2022-10-18T19:41:24;94893.44;;;9.71;85.88
9277;BME280;4676;42.678;23.244;2022-10-18T19:43:50;94901.06;;;9.69;86.38
9277;BME280;4676;42.678;23.244;2022-10-18T19:46:17;94895.22;;;9.67;87.05
9277;BME280;4676;42.678;23.244;2022-10-18T19:48:44;94895.91;;;9.74;87.82
9277;BME280;4676;42.678;23.244;2022-10-18T19:51:11;94898.00;;;9.55;90.26
9277;BME280;4676;42.678;23.244;2022-10-18T19:53:38;94891.41;;;9.49;91.21
9277;BME280;4676;42.678;23.244;2022-10-18T19:56:07;94888.41;;;9.32;91.59
9277;BME280;4676;42.678;23.244;2022-10-18T19:58:35;94880.81;;;9.32;92.65
9277;BME280;4676;42.678;23.244;2022-10-18T20:01:01;94882.53;;;9.32;92.39
9277;BME280;4676;42.678;23.244;2022-10-18T20:03:28;94878.66;;;9.16;92.02
9277;BME280;4676;42.678;23.244;2022-10-18T20:05:57;94878.03;;;9.08;92.25
9277;BME280;4676;42.678;23.244;2022-10-18T20:08:24;94885.88;;;8.95;90.79
9277;BME280;4676;42.678;23.244;2022-10-18T20:10:52;94881.81;;;8.87;92.94
9277;BME280;4676;42.678;23.244;2022-10-18T20:13:20;94886.66;;;8.97;94.78
9277;BME280;4676;42.678;23.244;2022-10-18T20:15:49;94884.84;;;9.04;93.92
9277;BME280;4676;42.678;23.244;2022-10-18T20:18:17;94882.44;;;8.98;95.56
9277;BME280;4676;42.678;23.244;2022-10-18T20:20:45;94884.88;;;9.02;96.84
9277;BME280;4676;42.678;23.244;2022-10-18T20:23:13;94867.72;;;8.77;96.43
9277;BME280;4676;42.678;23.244;2022-10-18T20:25:40;94883.56;;;8.85;96.78
9277;BME280;4676;42.678;23.244;2022-10-18T20:28:07;94883.72;;;8.77;95.78
9277;BME280;4676;42.678;23.244;2022-10-18T20:30:35;94871.06;;;8.79;95.61
9277;BME280;4676;42.678;23.244;2022-10-18T20:33:02;94870.09;;;8.84;95.20
9277;BME280;4676;42.678;23.244;2022-10-18T20:35:29;94875.97;;;8.86;94.93
9277;BME280;4676;42.678;23.244;2022-10-18T20:37:56;94873.03;;;8.65;95.53
9277;BME280;4676;42.678;23.244;2022-10-18T20:40:22;94871.34;;;8.65;95.49
9277;BME280;4676;42.678;23.244;2022-10-18T20:42:50;94875.44;;;8.71;94.10
9277;BME280;4676;42.678;23.244;2022-10-18T20:45:17;94869.47;;;8.73;95.38
9277;BME280;4676;42.678;23.244;2022-10-18T20:47:45;94867.84;;;8.71;96.89
9277;BME280;4676;42.678;23.244;2022-10-18T20:50:12;94870.66;;;8.56;97.46
9277;BME280;4676;42.678;23.244;2022-10-18T20:52:39;94864.13;;;8.47;98.66
9277;BME280;4676;42.678;23.244;2022-10-18T20:55:06;94868.34;;;8.46;97.97
9277;BME280;4676;42.678;23.244;2022-10-18T20:57:33;94861.75;;;8.38;98.53
9277;BME280;4676;42.678;23.244;2022-10-18T20:59:59;94855.22;;;8.29;98.63
9277;BME280;4676;42.678;23.244;2022-10-18T21:02:26;94855.97;;;8.33;98.69
9277;BME280;4676;42.678;23.244;2022-10-18T21:04:54;94846.88;;;8.23;99.46
9277;BME280;4676;42.678;23.244;2022-10-18T21:07:21;94846.84;;;8.24;100.00
9277;BME280;4676;42.678;23.244;2022-10-18T21:09:48;94850.28;;;8.20;100.00
9277;BME280;4676;42.678;23.244;2022-10-18T21:12:15;94846.19;;;8.16;100.00
9277;BME280;4676;42.678;23.244;2022-10-18T21:14:41;94851.31;;;8.12;100.00
9277;BME280;4676;42.678;23.244;2022-10-18T21:17:08;94826.47;;;7.89;100.00
9277;BME280;4676;42.678;23.244;2022-10-18T21:19:35;94847.19;;;8.06;100.00
9277;BME280;4676;42.678;23.244;2022-10-18T21:22:03;94829.00;;;7.89;100.00
9277;BME280;4676;42.678;23.244;2022-10-18T21:24:30;94835.72;;;7.90;100.00
9277;BME280;4676;42.678;23.244;2022-10-18T21:26:57;94818.91;;;7.89;100.00
9277;BME280;4676;42.678;23.244;2022-10-18T21:29:24;94833.91;;;7.96;100.00
9277;BME280;4676;42.678;23.244;2022-10-18T21:31:52;94825.72;;;7.84;100.00
9277;BME280;4676;42.678;23.244;2022-10-18T21:34:19;94828.94;;;7.92;100.00
9277;BME280;4676;42.678;23.244;2022-10-18T21:36:47;94809.72;;;7.85;100.00
9277;BME280;4676;42.678;23.244;2022-10-18T21:39:17;94811.44;;;7.84;100.00
9277;BME280;4676;42.678;23.244;2022-10-18T21:41:44;94802.19;;;7.82;100.00
9277;BME280;4676;42.678;23.244;2022-10-18T21:44:12;94783.00;;;7.75;100.00
9277;BME280;4676;42.678;23.244;2022-10-18T21:46:39;94802.25;;;7.79;100.00
9277;BME280;4676;42.678;23.244;2022-10-18T21:49:08;94797.34;;;7.73;100.00
9277;BME280;4676;42.678;23.244;2022-10-18T21:51:35;94779.09;;;7.57;100.00
9277;BME280;4676;42.678;23.244;2022-10-18T21:54:02;94800.78;;;7.67;100.00
9277;BME280;4676;42.678;23.244;2022-10-18T21:56:32;94794.09;;;7.66;100.00
9277;BME280;4676;42.678;23.244;2022-10-18T21:58:59;94796.47;;;7.74;99.99
9277;BME280;4676;42.678;23.244;2022-10-18T22:01:28;94789.84;;;7.68;98.40
9277;BME280;4676;42.678;23.244;2022-10-18T22:03:57;94795.72;;;7.70;98.35
9277;BME280;4676;42.678;23.244;2022-10-18T22:06:27;94784.75;;;7.71;98.64
9277;BME280;4676;42.678;23.244;2022-10-18T22:08:57;94778.19;;;7.61;98.07
9277;BME280;4676;42.678;23.244;2022-10-18T22:11:26;94772.22;;;7.67;98.84
9277;BME280;4676;42.678;23.244;2022-10-18T22:13:55;94778.13;;;7.64;98.11
9277;BME280;4676;42.678;23.244;2022-10-18T22:16:22;94785.03;;;7.56;99.57
9277;BME280;4676;42.678;23.244;2022-10-18T22:18:50;94778.13;;;7.64;99.45
9277;BME280;4676;42.678;23.244;2022-10-18T22:21:18;94778.91;;;7.68;97.96
9277;BME280;4676;42.678;23.244;2022-10-18T22:23:47;94768.81;;;7.69;97.54
9277;BME280;4676;42.678;23.244;2022-10-18T22:26:16;94764.88;;;7.54;98.20
9277;BME280;4676;42.678;23.244;2022-10-18T22:28:43;94765.78;;;7.50;97.64
9277;BME280;4676;42.678;23.244;2022-10-18T22:31:17;94774.19;;;7.49;98.08
9277;BME280;4676;42.678;23.244;2022-10-18T22:33:45;94768.09;;;7.63;98.11
9277;BME280;4676;42.678;23.244;2022-10-18T22:36:12;94751.59;;;7.45;97.89
9277;BME280;4676;42.678;23.244;2022-10-18T22:38:39;94764.97;;;7.48;98.25
9277;BME280;4676;42.678;23.244;2022-10-18T22:41:07;94760.03;;;7.42;99.30
9277;BME280;4676;42.678;23.244;2022-10-18T22:43:34;94758.25;;;7.47;99.22
9277;BME280;4676;42.678;23.244;2022-10-18T22:46:02;94734.16;;;7.33;98.90
9277;BME280;4676;42.678;23.244;2022-10-18T22:48:31;94754.13;;;7.43;99.99
9277;BME280;4676;42.678;23.244;2022-10-18T22:50:58;94730.78;;;7.34;100.00
9277;BME280;4676;42.678;23.244;2022-10-18T22:53:25;94749.16;;;7.39;100.00
9277;BME280;4676;42.678;23.244;2022-10-18T22:55:52;94712.59;;;7.17;100.00
9277;BME280;4676;42.678;23.244;2022-10-18T22:58:19;94752.69;;;7.30;100.00
9277;BME280;4676;42.678;23.244;2022-10-18T23:00:46;94746.25;;;7.13;100.00
9277;BME280;4676;42.678;23.244;2022-10-18T23:03:14;94746.13;;;7.20;100.00
9277;BME280;4676;42.678;23.244;2022-10-18T23:05:44;94726.38;;;6.94;100.00
9277;BME280;4676;42.678;23.244;2022-10-18T23:08:12;94740.31;;;7.17;100.00
9277;BME280;4676;42.678;23.244;2022-10-18T23:10:40;94742.84;;;7.15;100.00
9277;BME280;4676;42.678;23.244;2022-10-18T23:13:08;94732.94;;;7.06;100.00
9277;BME280;4676;42.678;23.244;2022-10-18T23:15:35;94742.09;;;7.10;100.00
9277;BME280;4676;42.678;23.244;2022-10-18T23:18:03;94739.59;;;7.09;100.00
9277;BME280;4676;42.678;23.244;2022-10-18T23:20:30;94731.19;;;7.10;100.00
9277;BME280;4676;42.678;23.244;2022-10-18T23:22:59;94731.13;;;7.14;100.00
9277;BME280;4676;42.678;23.244;2022-10-18T23:25:26;94727.78;;;7.12;100.00
9277;BME280;4676;42.678;23.244;2022-10-18T23:27:53;94720.38;;;7.03;100.00
9277;BME280;4676;42.678;23.244;2022-10-18T23:30:19;94693.09;;;6.77;100.00
9277;BME280;4676;42.678;23.244;2022-10-18T23:32:46;94721.25;;;7.00;100.00
9277;BME280;4676;42.678;23.244;2022-10-18T23:35:13;94719.66;;;6.95;100.00
9277;BME280;4676;42.678;23.244;2022-10-18T23:37:40;94714.75;;;6.89;100.00
9277;BME280;4676;42.678;23.244;2022-10-18T23:40:09;94707.91;;;6.95;100.00
9277;BME280;4676;42.678;23.244;2022-10-18T23:42:36;94707.09;;;6.93;100.00
9277;BME280;4676;42.678;23.244;2022-10-18T23:45:03;94710.53;;;6.89;100.00
9277;BME280;4676;42.678;23.244;2022-10-18T23:47:30;94702.31;;;6.78;100.00
9277;BME280;4676;42.678;23.244;2022-10-18T23:49:57;94697.38;;;6.71;100.00
9277;BME280;4676;42.678;23.244;2022-10-18T23:52:24;94699.75;;;6.80;100.00
9277;BME280;4676;42.678;23.244;2022-10-18T23:54:50;94704.78;;;6.81;100.00
9277;BME280;4676;42.678;23.244;2022-10-18T23:57:18;94703.94;;;6.82;100.00
9277;BME280;4676;42.678;23.244;2022-10-18T23:59:45;94708.13;;;6.82;100.00
